Espace membre
Imprimable
Challenges > Delhalle - Chimay, 19/04/2014, BEL - Jogging de la Principauté de Chimay
Liste des rapports > Delhalle - 14,2 km - Classement
Recherche: Page: [1]
205 Entrées
 
Les réclamations ne sont plus acceptées, les résultats sont considérés comme définitifs.
RangNrNomAgeIOCLigueEquipeRéelTempsTkmMoy.ScrPtsLocalité
1.1935LAHBIB MEHDI30BELJACO47:3347:333:21 17.9211137
2.1947DELAHAYE AURELIEN22BEL49:4349:433:31 17.1421093
3.121DEVEIRMAN DIDIER34BELTRAINING 750:2250:223:33 16.9231080BEERSEL
4.659MAHIA SEBASTIEN28BELFCHAMYSTERE51:2951:293:38 16.5551057NAMUR
5.1537CRUSIAUX STEPHANE35FRAESA 59FERRIERE LA GRANDE51:3751:373:39 16.5161054FOURMIES
6.1877PIRON MATHIEU34BELTRAIL NAMUR52:0852:083:41 16.3581044
7.1585HANSEN GÉRALD38BELATLEMOZORBA BRUPARCK52:3752:373:43 16.2091035BRUXELLES
8.1723DESTRES JERÔME30BELESA 5952:5552:553:44 16.11111028
9.1873SORTON SEBASTIEN30FRA53:3253:323:47 15.92141015
10.1554DEWILDE KRISTOF35BELGAVERTRIMMERS53:3453:343:47 15.91151014HARELBEKE
11.1601LEBLANC RENAUD29BELCLUB JACO53:4953:493:48 15.83161009VILLERS-LA-TOUR
12.1730PHILIPPE MAXIME27FRADAMBIERMONT55:4255:423:56 15.3023973
13.1731BUSIN FRANCOIS29FRADAMBIERMONT56:1356:133:58 15.1628962
14.763GHILAIN OLIVIER34BELKURISTO56:3756:374:00 15.0531953WEZEMBEEK OPPEM
15.412OERLEMANS THOMAS28BELCPMV57:4457:444:04 14.7641930MARCINELLE
16.1771DELTOUR EDDY28FRAMAUBEUGE MARATHON58:0758:074:06 14.6645922
17.1832DEFRASNE JEROME33FRAASG GAUCHY58:1558:154:07 14.6347919
18.751DIEUDONNE NICOLAS27BEL58:3158:314:08 14.5648914NOVILLE SUR MEHAIGNE
19.1687LEGRAND JULIEN29FRAGRAC58:3358:334:08 14.5649913
20.289MARLE LAURENT39BEL58:3458:344:08 14.5550912MORNIMONT
21.703GUYON DE MONTLIVAULT THOM27BEL58:3958:394:08 14.5353910SART MELIN
22.1711POUCET ALEXANDRE34BELCCSTC58:4758:474:09 14.4954907CHIMAY
23.1895LAHBIB KARIM25BEL58:5258:524:09 14.4755905
24.845NICODEME THIBAULT22BELRESC59:1359:134:11 14.3957898BRUXELLES
25.897JACOB NICOLAS28BELNICO TO RUN59:2059:204:11 14.3658896LEGLISE
26.1958POUCET BERENGER28BELCHIMAY TRAIL AVENTURE59:2859:284:12 14.3359894
27.1813BASTIEN OLIVIER26BELCRAZY BIKERS59:5359:534:14 14.2365884
28.712LORENT XAVIER33BELBOUFFIOL59:5859:584:14 14.2167882BOUFFIOULX
29.2001BOURCE PHILIPPE33BELPROMU/CRT1:00:001:00:004:14 14.2068881
30.335LECLEF JULIEN33BELCPMV1:00:071:00:074:14 14.1870879LOVERVAL
31.2062CARION GAUTHIER36BELMADRES1:00:101:00:104:15 14.1671877
32.519MATHIEU ALEXIS23BELJCCS1:00:311:00:314:16 14.0874870GEDINNE
33.1733BOUNA OMAR34FRADAMBIERMONT1:01:001:01:004:18 13.9779861
34.1964LACAILLE LIONEL29FRA1:01:011:01:014:18 13.9680860
35.1845VAN LERBERGHE SIMON23BEL1:01:131:01:134:19 13.9281856
36.722PIERRE JONATHAN20BEL1:01:191:01:194:20 13.9084853RAMILLES
37.1825MAGOTTEAUX PATRICK31BEL1:01:351:01:354:21 13.8486848
38.1709LUST THIBAUT34BELJACO1:01:391:01:394:21 13.8287847MONS
39.1797LEURQUIN ANTHONY28BEL1:01:511:01:514:22 13.7889842
40.202WIECZOR KEVIN28BELESM1:02:011:02:014:22 13.7493838GOZEE
41.1941EUGENE GUILLAUME30BELTNT1:02:131:02:134:23 13.7095835
42.1706MICHEL CHRISTOPHER30BEL1:02:141:02:144:23 13.6997833
43.2014CHAMPAGNE JEAN-CHRISTOPHE32BEL1:02:151:02:154:24 13.6998832
44.26DRAMAIX SYLVAIN35BELLA FORESTIERE1:02:291:02:294:24 13.64102827HERCHIES
45.1611LUST DAMIEN36BELCLUB JACO1:02:331:02:334:25 13.62105825LOBBES
46.1640POUCET ANTOINE32BELRAID DINGUE1:02:441:02:444:26 13.58111820FORGES
47.1663VAN NIEUWENHOVE TANGUY20BELCLUB JACO1:02:491:02:494:26 13.56113818SIVRY
48.889LECRENIER BENJAMIN30BEL1:02:531:02:534:26 13.55114816FRANIÈRE
49.1629NAVEAU SEBASTIEN31BELECSS TEAM1:02:581:02:584:27 13.53115814OBOURG
50.1865ALARDAIN CHRISTOPHE34FRAGRAC1:03:001:03:004:27 13.53116814RENWEZ
51.1512BAZEN ELTJO36NLD1:03:021:03:024:27 13.52117813NIJMEGEN
52.1878DAUSSY EMERIC32FRAAS OHIS1:03:231:03:234:28 13.44122805
53.1504BAILLY JEOFFREY36BELCLUB JACO1:03:251:03:254:28 13.44123804SELOIGNES
54.1523BRY OLIVIER24BELCRAZY BIKERS1:03:291:03:294:29 13.42124803
55.1589HARPIGNY CEDRIC38BELSNCB1:03:321:03:324:29 13.41125801OBOURG
56.1734LEROY FABRICE33FRADAMBIERMONT1:03:391:03:394:29 13.39127799
57.766PENTE MATTHIAS38BELJCQ1:04:001:04:004:31 13.31129793FRAMERIES
58.2003DEBANDE REMI25BEL1:04:031:04:034:31 13.30131791
59.1750DULIEU FABRICE37BELJC MONTAGNARD1:04:071:04:074:31 13.29133789JAMBES
60.1960CATINUS THOMAS26BEL1:04:121:04:124:32 13.27134788
61.1963JENNEQUIN MAXIME24BEL1:04:121:04:124:32 13.27135787
62.1962MOUCHET CHRISTOPHE35BEL1:04:221:04:224:32 13.24137784
63.949ANDRES MICHAEL36BEL1:04:231:04:234:33 13.23140782LIEGE
64.1620MASSON CHRISTOPHE29BELSHARKS TRIATHLON1:04:271:04:274:33 13.22142780WÉPION
65.1844COPPIN ALAN23BEL1:04:361:04:364:33 13.19145777
66.1527CECERE SANDRO30BEL1:04:581:04:584:35 13.12150769FARCIENNES
67.1724DELEAU MIGUEL36BEL1:04:581:04:584:35 13.12151769
68.862GIROULLE LIONEL38BEL1:05:011:05:014:35 13.11152768WANFERCÉE BAULET
69.1915POUCET FABRICE35BELJTRR1:05:061:05:064:36 13.09154766
70.1714LEGROS CHRISTIAN27FRACAFOURMIES1:05:521:05:524:39 12.94167749
71.1834BLANCHART ALEXANDRE27FRAMONT D'ORIGNY1:06:001:06:004:39 12.91170746
72.985CIEPERS JOHNNY22BEL1:06:191:06:194:41 12.85178737HASTIERE
73.1818MOYEN FLORIAN20BELCATS BIKERS1:06:361:06:364:42 12.79183731
74.332HANNARD KÉVIN31BEL1:06:371:06:374:42 12.79184731AUVELAIS
75.1581GUILLAUME SEBASTIEN20BELCLUB JACO1:06:451:06:454:43 12.77187728BAILEUX
76.1794NAVEAU MAXIME30BEL1:06:461:06:464:43 12.76188727
77.1507BAIOLET MAXIME25BELSHARKS TRIATHLON1:07:051:07:054:44 12.70194877CHIMAY
78.1716PREVOT CEDRIC37BELUSBWJACO1:07:411:07:414:46 12.59203707
79.1672ROB VINCENT30BELFLEU1:07:461:07:464:47 12.57205705
80.2052KASPAR NICOLAS32FRA1:07:481:07:484:47 12.57206704
81.1542DEHAYE FRANCOIS34BELCLUB JACO1:07:541:07:544:47 12.55208702VAULX
82.1694FALISE VALENTIN25BEL1:08:031:08:034:48 12.52213698
83.279SCHMIDT MAARTEN32BELCSFMYSTERE1:08:031:08:034:48 12.52214698FOREST
84.83PEETERS QUENTIN35BELSPT WAVRE1:08:141:08:144:49 12.49220692LIMAL
85.1539CULOT JEAN-FRANÇOIS39BELCLUB JACO1:08:141:08:144:49 12.49221692RANCE
86.1670CHRETIEN FREDERIC35BEL1:08:221:08:224:49 12.46224689
87.1501AMANT BERTRAND31BELJTRR1:08:441:08:444:51 12.40230681SIVRY
88.1836ROBERT GUILLAUME35BEL1:08:471:08:474:51 12.39231680
89.1517BEUGNIES DAVID31BEL1:08:481:08:484:51 12.38232679FONTAINE-VALMONT
90.220DEMARCIN PIERRE31BELGAG1:09:231:09:234:54 12.28241667SAUVENIERE
91.696LECLEF SEBASTIEN34BELCSFMYSTERE1:09:271:09:274:54 12.27243666FOREST
92.1641POUCET LUCAS24BELCLUB JACO1:09:411:09:414:55 12.23250659FROIDCHAPELLE
93.27BOISSON GILLES30BELCSFMYSTERE1:09:521:09:524:56 12.20252656FOREST
94.2046ANDRE LUCAS30FRALES BLEROTS1:10:051:10:054:57 12.16256651
94.2005DEBORTOLI NICOLAS25BEL1:10:051:10:054:57 12.16256651
96.1580GUILLAUME JULIEN22BELCLUB JACO1:10:091:10:094:57 12.15259649BAILEUX
97.1519BOURGUIGNON PIERRE25BEL1:10:271:10:274:58 12.09264643CHIMAY
98.1850PLISSON FLORENT35FRALUMES COURIR1:10:311:10:314:58 12.08265641
99.1904TITTEL SEBASTIEN36BELJC RONVAU1:10:451:10:454:59 12.04270636
100.1986SIBILLE THIBAUD29BEL1:10:461:10:464:59 12.04271635
101.1772VANHEES CHRISTOPHER27BELJACO1:10:531:10:535:00 12.02273633
102.1729DUPONT JEREMY37FRADAMBIERMONT1:10:541:10:545:00 12.02274632
103.1985GRANDE Y LARA NICOLAS26BEL1:10:561:10:565:00 12.01275632
104.820BIENFAIT QUENTIN36BELB.T.B.T1:10:561:10:565:00 12.01276631BRAY
105.1762PESTIAUX GREGORY35BEL1:11:061:11:065:01 11.98278628
106.2002AMANT STEPHANE27BEL1:11:151:11:155:02 11.96281625GRANDRIEU
107.911DE VRIENDT JEFFRY32BELRCNAMUR1:11:241:11:245:02 11.93283622GILLY
108.2022MAGOTTAUX NICOLAS28BEL1:11:261:11:265:02 11.93285621
109.1790VAN LANGENHOVE RUDY31BELAC FRONTIERES1:11:381:11:385:03 11.90289617
110.1705VAN ZEE JOOST39NLD1:11:541:11:545:04 11.85294611
111.2076DE NEEF GUILLAUME28BEL1:11:541:11:545:04 11.85296610
112.1647SALMIN FRANCOIS30BELLES CHARROGNARDS1:12:121:12:125:06 11.80303603BERZÉE
113.2047DHORDAIN CHARLES27FRA1:12:171:12:175:06 11.79305601
114.2041GLASSET JULIEN39FRA1:12:211:12:215:06 11.78306600
115.2063DHORDAIN FRANCOIS25FRA1:12:321:12:325:07 11.75310596
116.2043AMISI CHARLY34FRA1:12:341:12:345:07 11.74312594
116.2051PAUCOT LOGAN31FRA1:12:341:12:345:07 11.74312594
118.2074BRY ARNAUD23BEL1:12:361:12:365:07 11.74314593
119.1901MEURICE PHILIPPE36BELKURISTO1:12:511:12:515:08 11.70318588
120.1635PASDERMADJIAN ALEXANDRE26BEL1:13:071:13:075:09 11.66325582NIVELLES
121.784BIENFAIT BENJAMIN31BELL'EOLIEN1:13:181:13:185:10 11.62331577QUÉVY-LE-PETIT
122.937VANDERLINDEN DENIS36BEL1:13:211:13:215:10 11.62332576CHENEE
123.2048BERLEMONT EMMANUEL38FRA1:13:271:13:275:11 11.60335573
124.1520BOURLARD MARC37BELCLUB JACO1:13:371:13:375:12 11.57341568BAILEUX
125.1534CORDEWENER JOËL39BELAC FRONTIERES1:13:421:13:425:12 11.56344566
126.1532COLSON GUILLAUME26BELCLUB JACO1:13:471:13:475:12 11.55345564VIRELLES
127.1740CARLIER ANTOINE23FRA1:14:051:14:055:14 11.50348559
128.2045ANDRE ANTONY25FRA1:14:121:14:125:14 11.48351556
129.2018PILLIER JORDANE23BELAC FRONTIERES1:14:201:14:205:15 11.46355553
130.1898SPILMONT CHRISTOPHE35FRA1:14:281:14:285:15 11.44361549
131.882CUPPENS BENOIT38BEL1:14:281:14:285:15 11.44362548BEAUFAYS
132.2012MATTART DENIS26BELJE COURS À INCOURT1:14:351:14:355:16 11.42365546
133.1664VANTO GAETANO36BELCLUB JACO1:14:361:14:365:16 11.42367544PÉRONNES-LEZ-BINCHE
134.1632NSENGIMANA THÉO24RWAUACUAC1:14:491:14:495:17 11.39371540MONS
135.100BERTRAND NICOLAS30BELRRTCHATELET1:15:081:15:085:18 11.34375534BOIS DE VILLERS
136.1549DERMINE PAUL25BEL1:15:441:15:445:20 11.25384523NALINNES
137.2057LENARTZ PASCAL37BEL1:15:481:15:485:21 11.24387520
138.1953CLAERHOUT FRANCOIS34BELCPMV1:16:081:16:085:22 11.19390515
139.1538CULOT CÉDRIC37BELCLUB JACO1:16:161:16:165:23 11.17393512PETIGNY
140.1707HERBAGE MAXIME23BELLA THURE1:16:161:16:165:23 11.17394512
141.1977DALPIAZ BENJAMIN25BEL1:16:371:16:375:24 11.12399505
142.2075BEAUTRIX LAURENT39BEL1:16:411:16:415:25 11.11402503
143.1857JACQUET FABIEN29BELNICOTORUN1:16:431:16:435:25 11.11403502
144.1642POULAIN FABRICE38BELCHARROGNARDS1:16:501:16:505:25 11.09406499VILLE-SUR-HAINE
145.1699VAN BORM PETER36BELSWIFT1:16:511:16:515:25 11.09407499OBAIX - ROSSEIGNIES
146.2023BEGAUX ROMAIN21BELES MOMINOISE1:17:041:17:045:26 11.06412494
147.2024DUPUIS JEAN-SEBASTIEN38BEL1:17:091:17:095:26 11.04416491
148.905MELCHIOR BENJAMIN32BELRCNAMUR1:17:251:17:255:28 11.01424485SAINT MARC
149.1522BROUNS BART29NLD1:17:361:17:365:28 10.98428481DEN HAAG
150.1625MICHELET DOMINIQUE29BEL1:17:381:17:385:28 10.98430479LUTTRE
151.1588HARDY SIMON26BEL1:17:391:17:395:29 10.97432478WOLUWÉ-SAINT-PIERRE
152.1961IANIRO BAPTISTO23BEL1:18:451:18:455:33 10.82447458
153.1746WARNON JONATHAN35BELCABWPHILIPPEVILLE1:18:451:18:455:33 10.82448458
154.455HENRY RENAUD30BELJCCS1:19:151:19:155:35 10.75460447PONTAURY METTET
155.978COLMANT AURELIEN31BELJC INCOURT1:19:321:19:325:37 10.71467440JODOIGNE
156.1982GREGOIRE SEBASTIEN26BEL1:19:421:19:425:37 10.69470437
157.544ROCHUS DAVID32BEL1:20:171:20:175:40 10.61477427SCHAERBEEK
158.1987HELLEBOSCH CEDRIC25BEL1:20:371:20:375:41 10.57479422
159.1510BARVAUX QUENTIN26BEL1:20:481:20:485:42 10.55482419BAILEUX
160.1808MARMET RUDDY35FRA1:20:501:20:505:42 10.54483418
161.922BADO MATHIEU32BELRCNAMUR1:20:521:20:525:42 10.54484417LES ISNES
162.2026VANDERHEYDEN NATHANAEL24BEL1:20:551:20:555:42 10.53486416
163.2029KIPS DAVID31BELRCNAMUR1:21:051:21:055:43 10.51489412
164.1994NALETTO MATHIEU38FRA1:21:061:21:065:43 10.51490412
165.1784GAUDOUX SEBASTIEN33BEL1:21:281:21:285:45 10.46494406
166.707NEMANN BRUNO32BELRCNAMUR1:22:261:22:265:49 10.34512387WARTET
167.2037BLONDELLE VALENTIN20BEL1:22:311:22:315:49 10.33514385
168.1823VIEVILLE MAXIME29FRA1:22:531:22:535:51 10.28520378
169.1565FOLKERTS SIJMEN31NLD1:22:571:22:575:51 10.27522377ARNHEM
170.1978LEFEVRE ARNAUD38FRA1:23:331:23:335:53 10.20529366
171.1809BILLY MICKAEL34FRA1:24:131:24:135:56 10.12539355
172.2019STEFANUTO PIERRE-HUGUES26BEL1:24:431:24:435:58 10.06546346
173.1556DRUART CHRISTOPHE27BEL1:24:491:24:495:59 10.05549344RIXENSART
174.1990GAUDRY CEDRIC22BELJACO1:25:191:25:196:01 9.99560333
175.2006FRANCOTTE FLORIAN21BELES MOMINOISE1:25:291:25:296:02 9.97565329
176.1894DEPRET LAURENT37BEL1:25:311:25:316:02 9.96567328
177.1698ROMBAUX ANTOINE32BEL1:26:031:26:036:04 9.90576318
178.1859MAREZ VIVIEN26BELJCHSH1:26:421:26:426:07 9.83595303
179.1867NAUTS THIERRY32BELJCCS1:27:411:27:416:11 9.72607287
180.1780VAN LAETHEM FREDERIC34BELFLEUFLEURUS ATHLETISME1:28:031:28:036:12 9.68623276
181.2050CATOIR BERTRAND37BELESM1:28:041:28:046:13 9.67624276
182.1842VIEVILLE THIBAUT33FRA1:28:291:28:296:14 9.63632268
183.1933DE CEUSTER JAN38BEL1:28:531:28:536:16 9.59637261
184.1997VAN PEEREN RICK29BELPRINS HENDRIK1:28:561:28:566:16 9.58641259
185.70LECLERCQ CÉDRIC35BEL1:29:061:29:066:17 9.56643256LIMAL
186.1927VASILE GREGORY37BELESM1:29:191:29:196:18 9.54646253
187.2021VANDERHEYDEN REMY21BELES MELINOISES1:30:531:30:536:25 9.37666227
188.1725DONVAINT BRUNO33FRADEMBIERMONT1:30:541:30:546:25 9.37667227
189.2049THIBAUT VINCENT33BEL1:31:271:31:276:27 9.32677217
190.1974JANSON THIBAULT33BEL1:31:301:31:306:27 9.31680215
191.1919THIBAUT LOUIS35BELESM1:32:191:32:196:31 9.23694200
192.1998DUPUIS THOMAS30BELESM1:32:201:32:206:31 9.23695200
193.1798COLSON THIBAUT30BELTRAIL CHIMAY1:32:541:32:546:33 9.17700192
194.1969SEBILLE LOIC31FRA1:33:411:33:416:36 9.10710179
195.1976DEGRELLE AURELIEN25BEL1:33:411:33:416:36 9.09711179
196.1712FONTAINE JONATHAN29FRA1:35:051:35:056:42 8.96720161
197.145GRANDMONT ANTONIN23BELARCHARCH1:35:131:35:136:43 8.95722158DINANT
198.360PETITJEAN FABIAN39BEL1:35:171:35:176:43 8.94725157BRUXELLES
199.349ANCEAU JEROME26BELDOISCHE1:35:471:35:476:45 8.90731149DOISCHE
200.1886PAULUS BENOIT29BELRC NAMUR1:36:341:36:346:48 8.82740138
201.1923TROIVAUX BERNARD39FRA1:38:381:38:386:57 8.64752112WAVRIN
202.2056POCHET DAMIEN30BEL1:39:331:39:337:01 8.56757101
203.1661VANDENBROERE BENOIT34BEL1:43:041:43:047:16 8.2777459VEDRIN
204.829LOPET MIKE23BELFPS HASTIERE1:51:561:51:567:53 7.617946HASTIERE
205.1518BOLLEN THIERRY30BEL2:08:152:08:159:02 6.648071SELOIGNES
DNF: abandon; DSQ: disqualifié; Vitesse en km/h
Page: [1]